createdAt,value
2018-04-23T00:00:52.183Z,16.49
2018-04-23T00:05:54.773Z,16.23
2018-04-23T00:10:57.239Z,15.99
2018-04-23T00:15:59.748Z,15.79
2018-04-23T00:21:02.320Z,15.63
2018-04-23T00:26:04.803Z,15.50
2018-04-23T00:31:08.340Z,15.41
2018-04-23T00:36:10.880Z,15.28
2018-04-23T00:41:13.431Z,15.18
2018-04-23T00:46:16.176Z,15.17
2018-04-23T00:51:18.716Z,15.19
2018-04-23T00:56:21.204Z,15.29
2018-04-23T01:01:23.690Z,15.22
2018-04-23T01:06:26.248Z,15.19
2018-04-23T01:11:28.795Z,15.15
2018-04-23T01:16:31.934Z,15.03
2018-04-23T01:21:34.439Z,14.77
2018-04-23T01:26:37.043Z,14.65
2018-04-23T01:31:39.597Z,14.39
2018-04-23T01:36:42.113Z,14.19
2018-04-23T01:41:44.627Z,14.08
2018-04-23T01:46:47.109Z,14.00
2018-04-23T01:51:49.586Z,14.10
2018-04-23T01:56:52.057Z,14.14
2018-04-23T02:01:54.554Z,14.03
2018-04-23T02:06:57.008Z,13.96
2018-04-23T02:11:59.544Z,13.93
2018-04-23T02:17:02.025Z,14.04
2018-04-23T02:22:04.483Z,14.12
2018-04-23T02:27:07.059Z,14.12
2018-04-23T02:32:09.583Z,13.98
2018-04-23T02:37:12.109Z,14.07
2018-04-23T02:42:14.662Z,13.97
2018-04-23T02:47:17.182Z,13.81
2018-04-23T02:52:19.645Z,13.84
2018-04-23T02:57:22.190Z,13.78
2018-04-23T03:02:24.654Z,13.87
2018-04-23T03:07:27.138Z,13.93
2018-04-23T03:12:29.613Z,13.99
2018-04-23T03:17:32.080Z,13.94
2018-04-23T03:22:34.544Z,13.76
2018-04-23T03:27:37.049Z,13.58
2018-04-23T03:32:39.605Z,13.42
2018-04-23T03:37:42.111Z,13.19
2018-04-23T03:42:44.700Z,13.20
2018-04-23T03:47:47.212Z,13.30
2018-04-23T03:52:49.681Z,13.33
2018-04-23T03:57:52.165Z,13.42
2018-04-23T04:02:54.691Z,13.43
2018-04-23T04:07:57.187Z,13.42
2018-04-23T04:13:11.515Z,13.59
2018-04-23T04:18:34.750Z,13.86
2018-04-23T04:23:37.261Z,14.08
2018-04-23T04:28:39.776Z,14.33
2018-04-23T04:33:43.149Z,14.59
2018-04-23T04:38:45.628Z,14.82
2018-04-23T04:43:48.097Z,15.10
2018-04-23T04:48:50.550Z,15.42
2018-04-23T04:53:53.003Z,15.79
2018-04-23T04:58:57.627Z,16.25
2018-04-23T05:04:02.418Z,16.76
2018-04-23T05:09:05.074Z,19.00
2018-04-23T05:14:07.672Z,20.58
2018-04-23T05:19:10.231Z,22.01
2018-04-23T05:24:12.747Z,23.51
2018-04-23T05:29:15.232Z,21.51
2018-04-23T05:34:17.681Z,21.83
2018-04-23T05:39:20.150Z,21.03
2018-04-23T05:44:22.930Z,19.99
2018-04-23T05:49:25.407Z,19.50
2018-04-23T05:54:27.917Z,19.54
2018-04-23T05:59:30.495Z,19.22
2018-04-23T06:04:32.950Z,18.60
2018-04-23T06:09:35.399Z,18.42
2018-04-23T06:14:37.990Z,18.34
2018-04-23T06:19:40.607Z,18.04
2018-04-23T06:24:43.225Z,17.94
2018-04-23T06:29:45.776Z,17.99
2018-04-23T06:34:48.335Z,18.37
2018-04-23T06:39:51.028Z,18.66
2018-04-23T06:44:54.117Z,19.35
2018-04-23T06:49:56.581Z,18.89
2018-04-23T06:54:59.078Z,18.76
2018-04-23T07:00:01.545Z,18.85
2018-04-23T07:05:04.047Z,19.01
2018-04-23T07:10:06.948Z,19.48
2018-04-23T07:15:09.621Z,20.36
2018-04-23T07:20:12.137Z,20.93
2018-04-23T07:25:14.630Z,22.01
2018-04-23T07:30:17.104Z,21.91
2018-04-23T07:35:19.799Z,21.79
2018-04-23T07:40:22.884Z,22.51
2018-04-23T07:45:25.359Z,23.19
2018-04-23T07:50:27.930Z,24.07
2018-04-23T07:55:30.483Z,24.65
2018-04-23T08:00:33.004Z,25.13
2018-04-23T08:05:35.465Z,25.22
2018-04-23T08:10:38.066Z,25.15
2018-04-23T08:15:40.581Z,26.23
2018-04-23T08:20:43.075Z,26.21
2018-04-23T08:25:45.547Z,25.88
2018-04-23T08:30:48.940Z,25.24
2018-04-23T08:35:51.413Z,24.61
2018-04-23T08:40:53.906Z,24.78
2018-04-23T08:45:56.370Z,24.82
2018-04-23T08:50:59.571Z,24.36
2018-04-23T08:56:02.072Z,23.02
2018-04-23T09:01:04.603Z,21.71
2018-04-23T09:06:07.082Z,21.49
2018-04-23T09:11:09.657Z,21.09
2018-04-23T09:16:12.160Z,20.64
2018-04-23T09:21:14.716Z,20.28
2018-04-23T09:26:17.196Z,20.24
2018-04-23T09:31:19.667Z,20.18
2018-04-23T09:36:22.149Z,19.80
2018-04-23T09:41:24.606Z,19.47
2018-04-23T09:46:27.067Z,19.03
2018-04-23T09:51:29.606Z,18.96
2018-04-23T09:56:32.082Z,18.93
2018-04-23T10:01:34.566Z,19.08
2018-04-23T10:06:37.466Z,19.52
2018-04-23T10:11:39.969Z,20.13
2018-04-23T10:16:42.472Z,20.72
2018-04-23T10:21:45.786Z,20.53
2018-04-23T10:26:48.309Z,20.30
2018-04-23T10:31:50.789Z,21.12
2018-04-23T10:36:53.253Z,21.41
2018-04-23T10:41:55.881Z,21.11
2018-04-23T10:46:58.355Z,21.37
2018-04-23T10:52:00.800Z,21.34
2018-04-23T10:57:03.230Z,22.57
2018-04-23T11:02:05.697Z,24.28
2018-04-23T11:07:08.253Z,24.38
2018-04-23T11:12:10.771Z,23.96
2018-04-23T11:17:13.266Z,24.13
2018-04-23T11:22:15.732Z,23.43
2018-04-23T11:27:18.178Z,23.65
2018-04-23T11:37:46.397Z,23.62
2018-04-23T11:42:48.896Z,22.90
2018-04-23T11:47:51.402Z,23.54
2018-04-23T11:52:53.885Z,23.36
2018-04-23T11:57:56.420Z,23.92
2018-04-23T12:02:58.942Z,23.59
2018-04-23T12:08:01.648Z,23.67
2018-04-23T12:13:04.141Z,23.89
2018-04-23T12:18:06.626Z,23.27
2018-04-23T12:23:09.172Z,23.86
2018-04-23T12:28:11.742Z,24.12
2018-04-23T12:33:14.256Z,23.18
2018-04-23T12:38:16.724Z,22.79
2018-04-23T12:43:19.226Z,23.76
2018-04-23T12:48:21.702Z,24.35
2018-04-23T12:53:24.286Z,25.05
2018-04-23T12:58:26.878Z,24.15
2018-04-23T13:03:29.476Z,24.62
2018-04-23T13:08:32.040Z,25.13
2018-04-23T13:13:34.642Z,24.78
2018-04-23T13:18:37.228Z,24.60
2018-04-23T13:23:39.770Z,24.76
2018-04-23T13:28:42.362Z,25.64
2018-04-23T13:33:44.895Z,25.85
2018-04-23T13:38:47.895Z,24.36
2018-04-23T13:43:50.479Z,23.45
2018-04-23T13:48:53.013Z,23.32
2018-04-23T13:53:55.677Z,22.59
2018-04-23T13:58:58.290Z,22.54
2018-04-23T14:04:00.871Z,22.96
2018-04-23T14:09:03.817Z,24.11
2018-04-23T14:14:06.671Z,24.58
2018-04-23T14:19:09.300Z,24.44
2018-04-23T14:24:12.066Z,24.57
2018-04-23T14:29:14.721Z,24.90
2018-04-23T14:34:17.520Z,24.44
2018-04-23T14:39:20.012Z,25.10
2018-04-23T14:44:22.607Z,24.55
2018-04-23T14:49:25.213Z,24.10
2018-04-23T14:54:27.878Z,23.15
2018-04-23T14:59:30.406Z,23.25
2018-04-23T15:04:32.882Z,23.07
2018-04-23T15:09:35.357Z,23.62
2018-04-23T15:14:37.938Z,23.89
2018-04-23T15:19:40.529Z,23.81
2018-04-23T15:24:43.073Z,23.16
2018-04-23T15:29:45.539Z,22.69
2018-04-23T15:34:48.003Z,21.81
2018-04-23T15:39:50.498Z,21.22
2018-04-23T15:44:52.963Z,20.94
2018-04-23T15:49:55.433Z,21.44
2018-04-23T15:54:57.887Z,21.75
2018-04-23T16:00:00.687Z,22.64
2018-04-23T16:05:03.239Z,21.72
2018-04-23T16:10:05.920Z,21.25
2018-04-23T16:15:08.693Z,21.92
2018-04-23T16:20:12.963Z,21.52
2018-04-23T16:25:15.462Z,21.31
2018-04-23T16:30:18.036Z,20.62
2018-04-23T16:35:20.757Z,20.44
2018-04-23T16:40:23.212Z,20.91
2018-04-23T16:45:28.358Z,20.66
2018-04-23T16:50:30.825Z,20.76
2018-04-23T16:55:33.389Z,20.44
2018-04-23T17:00:36.021Z,20.25
2018-04-23T17:05:38.512Z,20.16
2018-04-23T17:10:41.023Z,19.96
2018-04-23T17:15:43.565Z,19.92
2018-04-23T17:20:46.099Z,19.75
2018-04-23T17:25:48.576Z,19.50
2018-04-23T17:30:51.939Z,19.31
2018-04-23T17:35:54.457Z,18.97
2018-04-23T17:40:56.955Z,18.70
2018-04-23T17:45:59.534Z,18.38
2018-04-23T17:51:02.234Z,18.20
2018-04-23T17:56:04.836Z,18.01
2018-04-23T18:01:07.519Z,17.80
2018-04-23T18:06:10.217Z,17.67
2018-04-23T18:11:12.743Z,17.50
2018-04-23T18:16:15.410Z,17.28
2018-04-23T18:21:17.862Z,17.15
2018-04-23T18:26:20.444Z,17.13
2018-04-23T18:31:23.089Z,16.96
2018-04-23T18:36:25.544Z,16.89
2018-04-23T18:41:29.956Z,16.53
2018-04-23T18:46:34.629Z,16.63
2018-04-23T18:51:39.000Z,16.47
2018-04-23T18:56:44.142Z,16.17
2018-04-23T19:01:48.527Z,16.20
2018-04-23T19:06:52.383Z,16.06
2018-04-23T19:11:57.962Z,16.07
2018-04-23T19:17:03.823Z,15.84
2018-04-23T19:22:09.401Z,15.67
2018-04-23T19:27:13.882Z,15.73
2018-04-23T19:32:16.636Z,15.42
2018-04-23T19:37:19.292Z,15.35
2018-04-23T19:42:21.783Z,15.06
2018-04-23T19:47:24.267Z,14.83
2018-04-23T19:52:26.742Z,14.52
2018-04-23T19:57:29.243Z,14.45
2018-04-23T20:02:31.704Z,14.15
2018-04-23T20:07:34.197Z,14.10
2018-04-23T20:12:37.009Z,14.15
2018-04-23T20:17:39.771Z,13.78
2018-04-23T20:22:42.577Z,13.49
2018-04-23T20:27:46.199Z,13.31
2018-04-23T20:32:49.091Z,13.19
2018-04-23T20:37:51.549Z,12.93
2018-04-23T20:42:53.996Z,12.62
2018-04-23T20:47:57.246Z,12.38
2018-04-23T20:52:59.811Z,12.10
2018-04-23T20:58:02.275Z,11.90
2018-04-23T21:03:04.768Z,11.96
2018-04-23T21:08:07.575Z,11.96
2018-04-23T21:13:10.211Z,11.76
2018-04-23T21:18:12.841Z,11.54
2018-04-23T21:23:15.353Z,11.41
2018-04-23T21:28:17.849Z,11.33
2018-04-23T21:33:20.329Z,11.32
2018-04-23T21:38:22.793Z,11.30
2018-04-23T21:43:25.259Z,11.26
2018-04-23T21:48:27.719Z,11.15
2018-04-23T21:53:30.178Z,11.04
2018-04-23T21:58:32.907Z,10.95
2018-04-23T22:03:35.396Z,10.81
2018-04-23T22:08:38.279Z,10.65
2018-04-23T22:13:40.818Z,10.49
2018-04-23T22:18:43.367Z,10.48
2018-04-23T22:23:45.941Z,10.64
2018-04-23T22:28:48.404Z,10.59
2018-04-23T22:33:50.882Z,10.38
2018-04-23T22:38:53.424Z,10.34
2018-04-23T22:43:55.931Z,10.22
2018-04-23T22:48:58.437Z,10.04
2018-04-23T22:54:01.896Z,10.08
2018-04-23T22:59:04.371Z,10.06
2018-04-23T23:04:07.035Z,10.33
2018-04-23T23:09:10.089Z,10.73
2018-04-23T23:14:12.577Z,11.08
2018-04-23T23:19:15.087Z,11.67
2018-04-23T23:24:17.590Z,11.88
2018-04-23T23:29:20.082Z,11.67
2018-04-23T23:34:22.548Z,11.57
2018-04-23T23:39:25.018Z,11.61
2018-04-23T23:44:27.510Z,11.90
2018-04-23T23:49:29.986Z,11.97
2018-04-23T23:54:32.454Z,11.96
2018-04-23T23:59:34.988Z,11.95
